»·PEaware :: N5PT P23-KIFP

N5PT :: P23-KIFP

FLIGHT INFORMATION

Flight Status: Arrived
Operator: Privately registered:
United States
More flights under this callsign
Pilot: Brian D. (19734)
Aircraft: CESSNA 172 SKYHAWK
(C172)
More flights by this aircraft type
Origin: P23 Seligman
United States
Destination: KIFP Laughlin/Bullhead Intl
United States
More flights between these airports :: More routes between these airports
Route:
File this flight plan on PilotEdge
Remarks:
Altitude:
(Current/Filed)
6,500ft
Speed:
(Current/Filed)
115kts
Departed: 25-Jul-18 04:49 PM
Arrived: 25-Jul-18 05:39 PM
Distance/Time
Traveled:
82nm/0:50
Distance/Time
To Go:
Arrived

Flight Plot

Page will automatically refresh every two minutes.

Flight plan parsing failed; only flown route is shown


Map Options




Map Legend


Flown Route
Filed Route
Departure Airport
Arrival Airport
Navaid (VOR, NDB)
Fix

Horizontal Profiles

Position Reports

Time Latitude Longitude Heading Altitude Ground
Speed
25-Jul-18 16:27 35.333315 -112.887664 322 5233ft 0kts
25-Jul-18 16:28 35.333315 -112.887664 322 5233ft 0kts
25-Jul-18 16:29 35.333315 -112.887664 322 5233ft 0kts
25-Jul-18 16:30 35.333315 -112.887664 322 5233ft 0kts
25-Jul-18 16:31 35.333315 -112.887664 322 5233ft 0kts
25-Jul-18 16:32 35.333315 -112.887664 322 5233ft 0kts
25-Jul-18 16:33 35.333315 -112.887664 322 5233ft 0kts
25-Jul-18 16:34 35.333315 -112.887664 322 5233ft 0kts
25-Jul-18 16:35 35.333315 -112.887664 322 5233ft 0kts
25-Jul-18 16:36 35.333315 -112.887664 322 5233ft 0kts
25-Jul-18 16:37 35.333315 -112.887664 322 5233ft 0kts
25-Jul-18 16:38 35.333315 -112.887664 322 5233ft 0kts
25-Jul-18 16:39 35.333315 -112.887664 322 5233ft 0kts
25-Jul-18 16:40 35.333315 -112.887664 322 5233ft 0kts
25-Jul-18 16:41 35.333315 -112.887664 322 5233ft 0kts
25-Jul-18 16:42 35.333315 -112.887664 322 5233ft 0kts
25-Jul-18 16:43 35.333315 -112.887664 322 5233ft 0kts
25-Jul-18 16:44 35.333315 -112.887664 322 5233ft 0kts
25-Jul-18 16:45 35.333315 -112.887664 322 5233ft 0kts
25-Jul-18 16:46 35.333111 -112.888340 229 5233ft 7kts
25-Jul-18 16:47 35.331009 -112.891731 229 5230ft 15kts
25-Jul-18 16:48 35.330809 -112.892481 322 5228ft 0kts
25-Jul-18 16:49 35.330810 -112.892482 322 5228ft 0kts
25-Jul-18 16:50 35.338492 -112.881036 43 5381ft 83kts
25-Jul-18 16:51 35.339971 -112.863220 215 5931ft 65kts
25-Jul-18 16:52 35.330309 -112.881932 253 6522ft 66kts
25-Jul-18 16:53 35.324301 -112.906666 244 6960ft 94kts
25-Jul-18 16:54 35.331041 -112.941427 285 6841ft 119kts
25-Jul-18 16:55 35.335134 -112.981857 270 6802ft 120kts
25-Jul-18 16:56 35.335706 -113.022214 268 6882ft 115kts
25-Jul-18 16:57 35.335912 -113.057341 268 7413ft 101kts
25-Jul-18 16:58 35.336085 -113.091621 268 7871ft 101kts
25-Jul-18 16:59 35.336261 -113.124760 268 8392ft 95kts
25-Jul-18 17:00 35.336449 -113.155318 269 8366ft 115kts
25-Jul-18 17:01 35.336676 -113.195513 268 8322ft 118kts
25-Jul-18 17:02 35.336887 -113.241816 268 8272ft 117kts
25-Jul-18 17:03 35.337058 -113.282171 268 8228ft 119kts
25-Jul-18 17:04 35.337212 -113.322335 268 8224ft 117kts
25-Jul-18 17:05 35.337353 -113.362264 268 8224ft 117kts
25-Jul-18 17:06 35.337459 -113.395525 268 8224ft 117kts
25-Jul-18 17:07 35.337574 -113.435063 268 8224ft 117kts
25-Jul-18 17:08 35.337672 -113.474864 268 8224ft 117kts
25-Jul-18 17:09 35.337708 -113.514263 268 8224ft 117kts
25-Jul-18 17:10 35.337758 -113.553743 268 8224ft 117kts
25-Jul-18 17:11 35.337824 -113.599850 268 8223ft 117kts
25-Jul-18 17:12 35.339983 -113.632655 294 8221ft 120kts
25-Jul-18 17:13 35.343241 -113.667028 238 8226ft 116kts
25-Jul-18 17:14 35.329938 -113.702692 248 8225ft 116kts
25-Jul-18 17:15 35.318935 -113.738845 249 8225ft 116kts
25-Jul-18 17:16 35.307908 -113.775784 249 8225ft 116kts
25-Jul-18 17:17 35.296838 -113.812875 249 8225ft 116kts
25-Jul-18 17:18 35.285851 -113.849626 249 8225ft 116kts
25-Jul-18 17:19 35.274895 -113.886229 249 8225ft 116kts
25-Jul-18 17:20 35.263978 -113.922684 249 8224ft 116kts
25-Jul-18 17:21 35.254115 -113.960819 257 8216ft 118kts
25-Jul-18 17:22 35.247560 -114.000468 257 8216ft 118kts
25-Jul-18 17:23 35.241224 -114.039611 257 8215ft 118kts
25-Jul-18 17:24 35.234879 -114.078708 257 8215ft 118kts
25-Jul-18 17:25 35.228447 -114.118356 257 8215ft 119kts
25-Jul-18 17:26 35.222032 -114.157774 257 8215ft 119kts
25-Jul-18 17:27 35.215821 -114.195866 257 8215ft 119kts
25-Jul-18 17:28 35.209364 -114.235376 257 8215ft 119kts
25-Jul-18 17:29 35.202804 -114.275429 257 8180ft 121kts
25-Jul-18 17:30 35.196224 -114.315523 257 8129ft 122kts
25-Jul-18 17:31 35.189563 -114.356013 257 8076ft 122kts
25-Jul-18 17:32 35.184484 -114.386849 257 8571ft 77kts
25-Jul-18 17:33 35.180431 -114.412016 257 7830ft 76kts
25-Jul-18 17:34 35.176107 -114.438321 257 6959ft 85kts
25-Jul-18 17:35 35.162559 -114.460946 246 6057ft 85kts
25-Jul-18 17:36 35.170452 -114.488534 336 4792ft 108kts
25-Jul-18 17:37 35.194155 -114.510401 277 3233ft 119kts
25-Jul-18 17:38 35.189201 -114.547044 249 1853ft 105kts
25-Jul-18 17:39 35.169431 -114.560383 178 720ft 69kts
25-Jul-18 17:40 35.156202 -114.559395 155 658ft 22kts
25-Jul-18 17:41 35.155911 -114.558359 85 671ft 0kts
25-Jul-18 17:42 35.155911 -114.558359 85 671ft 0kts
25-Jul-18 17:43 35.155911 -114.558359 85 671ft 0kts
25-Jul-18 17:44 35.155963 -114.558178 47 672ft 7kts
25-Jul-18 17:45 35.159748 -114.556673 12 677ft 7kts
25-Jul-18 17:46 35.160022 -114.556341 84 678ft 0kts

Navigation Log

Ident Type
Flight plan parsing failed, navigation log unavailable